Beverly Hills, CA

7:55 PM PDT on April 25, 2015 (GMT -0700)
Los Angeles International | | Change Station
CLOSE
Current Station
Airport
Location: Los Angeles,
Elevation: 105 ft
Nearby Weather Stations
Active Advisory: Wind Advisory Active Notice: Public Information Statement

Elev 105 ft 33.94 °N, 118.39 °W | Updated 1 hour ago

Mostly Cloudy
Mostly Cloudy
59 °F
Feels Like 59 °F
N
28
Wind Variable Wind from West
Gusts 34 mph

Today
High -- | Low -- °F
--% Chance of Precip.
Yesterday
High -- | Low -- °F
Precip. -- in
6:10 AM 7:32 PM
Waxing Crescent, 51% visible
Pressure 29.87 in
Visibility 10.0 miles
Clouds Scattered Clouds 1200 ft
Scattered Clouds 3700 ft
Mostly Cloudy 9500 ft
Dew Point 51 °F
Humidity 75%
Rainfall 0.01 in
Snow Depth Not available.
UV 0 out of 12
Pollen 6.90 out of 12
Air Quality Not available.
Flu Activity Sporadic
METAR KLAX 260153Z 27024G30KT 10SM SCT012 SCT037 BKN095 15/11 A2987 RMK AO2 PK WND 27030/0149 SLP114 T01500106

More Conditions Fewer Conditions

Pressure 29.87 in
Visibility 10.0 miles
Clouds Scattered Clouds 1200 ft
Scattered Clouds 3700 ft
Mostly Cloudy 9500 ft
Dew Point 51 °F
Humidity 75%
Rainfall 0.01 in
Snow Depth Not available.
UV 0 out of 12
Pollen 6.90 out of 12
Air Quality Not available.
Flu Activity Sporadic
METAR KLAX 260153Z 27024G30KT 10SM SCT012 SCT037 BKN095 15/11 A2987 RMK AO2 PK WND 27030/0149 SLP114 T01500106

More Conditions Fewer Conditions

10-Day Weather Forecast

Almanac

Astronomy

Apr. 25, 2015 Rise Set
Actual Time
Civil Twilight
Nautical Twilight
Astronomical Twilight
Moon
Length of Visible Light
Length of Day
Tomorrow will be .
, % of the Moon is Illuminated

Today's Extremes

State Highs State Lows

Community

WunderPhotos

Upload Photos

1,816,909 photos uploaded!

WunderBlogs® & News

Nearby

Air Quality

  Air Quality AQ Index Pollutant
Not available.

Snow Depth

Station Depth Elevation

Earthquake Activity

City Distance Mag. Time & Date
Minimum magnitude displayed is 2.5.

Coastal Water Temperatures

Place Temperature

Stations

Nearby Weather Stations

Station Location Temp. Windchill Dew Point Humidity Wind Precip. Elev Updated Type
                   
Wind Advisory
Statement as of 2:39 PM PDT on April 25, 2015

... Wind Advisory remains in effect until 9 PM PDT this evening...

* winds and timing... west winds 15 to 25 mph with gusts to 35 mph
will continue into this evening. Strongest winds will be near the
Ventura coast... where isolated gusts to 40 mph will be likely.
Winds will begin to diminish late this evening.

* Impacts... gusty winds will make driving difficult... especially
for drivers of high profile vehicles... near the coast.

Precautionary/preparedness actions...

When driving... use extra caution. Be prepared for sudden gusty
cross winds.